Archangel — SVME — position and weather

sailwx.info

Track history (hours):
 
Tides and Currents Weather Stations Pressure Air Temp Water Temp Dewpoint Dewpoint Depression Visibility Wind Speed Wind Dir Waves Ship Positions

Archangel

Last reported at 2018-Jun-22 20:24 UTC. Time now 2018-Jun-22 20:44 UTC.
Position N 44°37' E 037°32'.

Length 274 m; draft 9.5 m.

Type: Tanker. MMSI: 240437000.

Date/timePositionNaut miles runAvg speedWind from/ knotsBaromVisibWave heightAir tempDewpointWater temp
2018-Jun-22 20:24N 44°37' E 037°32'613.9
2018-Jun-22 20:00N 44°35' E 037°39'3 6.0
2018-Jun-22 19:30N 44°37' E 037°43'0 0.3
2018-Jun-22 19:01N 44°36' E 037°43'0 0.2
2018-Jun-22 18:31N 44°36' E 037°43'0 0.2
2018-Jun-22 18:00N 44°37' E 037°43'0 0.5
2018-Jun-22 17:31N 44°37' E 037°43'0 0.4
2018-Jun-22 17:00N 44°37' E 037°43'0 0.1
2018-Jun-22 16:30N 44°37' E 037°43'0 0.6
2018-Jun-22 16:00N 44°36' E 037°43'2 4.3
2018-Jun-22 15:30N 44°35' E 037°41'4 8.5
2018-Jun-22 15:01N 44°32' E 037°37'713.5
2018-Jun-22 14:30N 44°27' E 037°30'713.9
2018-Jun-22 14:00N 44°23' E 037°22'713.9
2018-Jun-22 13:30N 44°19' E 037°14'713.6
2018-Jun-22 13:00N 44°16' E 037°06'813.5
2018-Jun-22 12:25N 44°12' E 036°56'2313.1
2018-Jun-22 10:40N 44°02' E 036°27'213.1
2018-Jun-22 10:30N 44°01' E 036°24'713.2
2018-Jun-22 10:00N 43°59' E 036°16'612.8
2018-Jun-22 09:30N 43°56' E 036°08'612.4
2018-Jun-22 09:00N 43°54' E 035°60'26 9.6
2018-Jun-22 06:16N 43°42' E 035°27'311.6
2018-Jun-22 06:00N 43°41' E 035°24'611.9
2018-Jun-22 05:30N 43°39' E 035°16'713.3
2018-Jun-22 05:00N 43°36' E 035°07'712.6
2018-Jun-22 04:28N 43°33' E 034°59'1212.6
2018-Jun-22 03:30N 43°29' E 034°43'612.4
2018-Jun-22 03:00N 43°26' E 034°36'612.4
2018-Jun-22 02:30N 43°23' E 034°28'612.4
2018-Jun-22 02:00N 43°21' E 034°20'612.4
2018-Jun-22 01:30N 43°18' E 034°12'612.3
2018-Jun-22 01:00N 43°16' E 034°04'612.4
2018-Jun-22 00:30N 43°13' E 033°57'612.6
2018-Jun-22 00:00N 43°11' E 033°49'612.5
2018-Jun-21 23:29N 43°08' E 033°41'812.5
2018-Jun-21 22:50N 43°05' E 033°31'412.4
2018-Jun-21 22:30N 43°03' E 033°26'612.3
2018-Jun-21 22:00N 43°01' E 033°18'812.5
2018-Jun-21 21:21N 42°57' E 033°08'412.4
2018-Jun-21 21:00N 42°56' E 033°02'612.2
2018-Jun-21 20:30N 42°53' E 032°55'612.0
2018-Jun-21 20:00N 42°51' E 032°47'612.0
2018-Jun-21 19:30N 42°48' E 032°40'612.0
2018-Jun-21 19:00N 42°46' E 032°32'612.2
2018-Jun-21 18:30N 42°43' E 032°25'612.2
2018-Jun-21 18:00N 42°41' E 032°17'612.1
2018-Jun-21 17:30N 42°38' E 032°10'612.1
2018-Jun-21 17:00N 42°36' E 032°02'612.0
2018-Jun-21 16:30N 42°33' E 031°55'611.9
2018-Jun-21 16:00N 42°31' E 031°47'611.8
2018-Jun-21 15:30N 42°28' E 031°40'611.8
2018-Jun-21 15:00N 42°26' E 031°33'611.9
2018-Jun-21 14:30N 42°24' E 031°25'612.1
2018-Jun-21 14:00N 42°21' E 031°18'1312.5
2018-Jun-21 12:56N 42°15' E 031°01'512.5
2018-Jun-21 12:30N 42°13' E 030°55'612.6
2018-Jun-21 12:00N 42°11' E 030°47'612.6
2018-Jun-21 11:30N 42°08' E 030°39'612.5
2018-Jun-21 11:00N 42°05' E 030°32'612.5
2018-Jun-21 10:30N 42°03' E 030°24'612.5
2018-Jun-21 10:00N 41°60' E 030°17'612.7
2018-Jun-21 09:30N 41°56' E 030°10'612.7
2018-Jun-21 09:00N 41°51' E 030°04'612.7
2018-Jun-21 08:30N 41°47' E 029°57'612.7
2018-Jun-21 08:00N 41°43' E 029°51'612.7
2018-Jun-21 07:30N 41°39' E 029°45'612.9
2018-Jun-21 07:00N 41°35' E 029°38'52 1.4
2018-Jun-19 18:55N 40°56' E 028°52'145 4.4
2018-Jun-18 09:47N 39°57' E 025°59'16 1.3
2018-Jun-17 21:54N 39°42' E 025°54'122 4.1
2018-Jun-16 16:12N 37°40' E 025°50'312.0
2018-Jun-16 15:57N 37°37' E 025°51'511.7
2018-Jun-16 15:30N 37°32' E 025°53'22211.1
2018-Jun-15 19:26N 34°49' E 028°59'512.0
2018-Jun-15 19:00N 34°46' E 029°04'612.0
2018-Jun-15 18:30N 34°42' E 029°10'611.9
2018-Jun-15 18:00N 34°38' E 029°15'3011.6
2018-Jun-15 15:24N 34°18' E 029°43'611.8
2018-Jun-15 14:51N 34°14' E 029°49'411.6
2018-Jun-15 14:30N 34°11' E 029°53'611.5
2018-Jun-15 14:00N 34°08' E 029°58'1711.2
2018-Jun-15 12:30N 33°57' E 030°14'611.4
2018-Jun-15 12:00N 33°53' E 030°19'1011.3
2018-Jun-15 11:07N 33°47' E 030°28'111.4
2018-Jun-15 11:00N 33°46' E 030°29'2511.8
2018-Jun-15 08:55N 33°30' E 030°52'1011.9
2018-Jun-15 08:03N 33°23' E 031°01'5912.0
2018-Jun-15 03:06N 32°45' E 031°55'411.9
2018-Jun-15 02:48N 32°43' E 031°59'411.9
2018-Jun-15 02:30N 32°41' E 032°02'6612.1
2018-Jun-14 21:02N 31°57' E 033°01'011.4
2018-Jun-14 21:00N 31°57' E 033°01'12 7.1
2018-Jun-14 19:18N 31°49' E 032°50'414.1
2018-Jun-14 19:00N 31°47' E 032°46'714.2
2018-Jun-14 18:30N 31°43' E 032°39'714.4
2018-Jun-14 18:00N 31°39' E 032°32'714.0
2018-Jun-14 17:29N 31°35' E 032°25'611.7
2018-Jun-14 17:01N 31°30' E 032°25'612.4
2018-Jun-14 16:30N 31°23' E 032°24'611.7
2018-Jun-14 16:00N 31°18' E 032°22'510.0
2018-Jun-14 15:30N 31°13' E 032°20'8 7.9
2018-Jun-14 14:30N 31°05' E 032°19'5 9.9
2018-Jun-14 13:57N 30°60' E 032°19'510.3
2018-Jun-14 13:28N 30°55' E 032°19'  
Track history (hours):
 
Tides and Currents Weather Stations Pressure Air Temp Water Temp Dewpoint Dewpoint Depression Visibility Wind Speed Wind Dir Waves Ship Positions

Archangel

Last reported at 2018-Jun-22 20:24 UTC. Time now 2018-Jun-22 20:44 UTC.
Position N 44°37' E 037°32'.

Length 274 m; draft 9.5 m.

Type: Tanker. MMSI: 240437000.

Date/timePositionNaut miles runAvg speedWind from/ knotsBaromVisibWave heightAir tempDewpointWater temp
2018-Jun-22 20:24N 44°37' E 037°32'613.9
2018-Jun-22 20:00N 44°35' E 037°39'3 6.0
2018-Jun-22 19:30N 44°37' E 037°43'0 0.3
2018-Jun-22 19:01N 44°36' E 037°43'0 0.2
2018-Jun-22 18:31N 44°36' E 037°43'0 0.2
2018-Jun-22 18:00N 44°37' E 037°43'0 0.5
2018-Jun-22 17:31N 44°37' E 037°43'0 0.4
2018-Jun-22 17:00N 44°37' E 037°43'0 0.1
2018-Jun-22 16:30N 44°37' E 037°43'0 0.6
2018-Jun-22 16:00N 44°36' E 037°43'2 4.3
2018-Jun-22 15:30N 44°35' E 037°41'4 8.5
2018-Jun-22 15:01N 44°32' E 037°37'713.5
2018-Jun-22 14:30N 44°27' E 037°30'713.9
2018-Jun-22 14:00N 44°23' E 037°22'713.9
2018-Jun-22 13:30N 44°19' E 037°14'713.6
2018-Jun-22 13:00N 44°16' E 037°06'813.5
2018-Jun-22 12:25N 44°12' E 036°56'2313.1
2018-Jun-22 10:40N 44°02' E 036°27'213.1
2018-Jun-22 10:30N 44°01' E 036°24'713.2
2018-Jun-22 10:00N 43°59' E 036°16'612.8
2018-Jun-22 09:30N 43°56' E 036°08'612.4
2018-Jun-22 09:00N 43°54' E 035°60'26 9.6
2018-Jun-22 06:16N 43°42' E 035°27'311.6
2018-Jun-22 06:00N 43°41' E 035°24'611.9
2018-Jun-22 05:30N 43°39' E 035°16'713.3
2018-Jun-22 05:00N 43°36' E 035°07'712.6
2018-Jun-22 04:28N 43°33' E 034°59'1212.6
2018-Jun-22 03:30N 43°29' E 034°43'612.4
2018-Jun-22 03:00N 43°26' E 034°36'612.4
2018-Jun-22 02:30N 43°23' E 034°28'612.4
2018-Jun-22 02:00N 43°21' E 034°20'612.4
2018-Jun-22 01:30N 43°18' E 034°12'612.3
2018-Jun-22 01:00N 43°16' E 034°04'612.4
2018-Jun-22 00:30N 43°13' E 033°57'612.6
2018-Jun-22 00:00N 43°11' E 033°49'612.5
2018-Jun-21 23:29N 43°08' E 033°41'812.5
2018-Jun-21 22:50N 43°05' E 033°31'412.4
2018-Jun-21 22:30N 43°03' E 033°26'612.3
2018-Jun-21 22:00N 43°01' E 033°18'812.5
2018-Jun-21 21:21N 42°57' E 033°08'412.4
2018-Jun-21 21:00N 42°56' E 033°02'612.2
2018-Jun-21 20:30N 42°53' E 032°55'612.0
2018-Jun-21 20:00N 42°51' E 032°47'612.0
2018-Jun-21 19:30N 42°48' E 032°40'612.0
2018-Jun-21 19:00N 42°46' E 032°32'612.2
2018-Jun-21 18:30N 42°43' E 032°25'612.2
2018-Jun-21 18:00N 42°41' E 032°17'612.1
2018-Jun-21 17:30N 42°38' E 032°10'612.1
2018-Jun-21 17:00N 42°36' E 032°02'612.0
2018-Jun-21 16:30N 42°33' E 031°55'611.9
2018-Jun-21 16:00N 42°31' E 031°47'611.8
2018-Jun-21 15:30N 42°28' E 031°40'611.8
2018-Jun-21 15:00N 42°26' E 031°33'611.9
2018-Jun-21 14:30N 42°24' E 031°25'612.1
2018-Jun-21 14:00N 42°21' E 031°18'1312.5
2018-Jun-21 12:56N 42°15' E 031°01'512.5
2018-Jun-21 12:30N 42°13' E 030°55'612.6
2018-Jun-21 12:00N 42°11' E 030°47'612.6
2018-Jun-21 11:30N 42°08' E 030°39'612.5
2018-Jun-21 11:00N 42°05' E 030°32'612.5
2018-Jun-21 10:30N 42°03' E 030°24'612.5
2018-Jun-21 10:00N 41°60' E 030°17'612.7
2018-Jun-21 09:30N 41°56' E 030°10'612.7
2018-Jun-21 09:00N 41°51' E 030°04'612.7
2018-Jun-21 08:30N 41°47' E 029°57'612.7
2018-Jun-21 08:00N 41°43' E 029°51'612.7
2018-Jun-21 07:30N 41°39' E 029°45'612.9
2018-Jun-21 07:00N 41°35' E 029°38'52 1.4
2018-Jun-19 18:55N 40°56' E 028°52'145 4.4
2018-Jun-18 09:47N 39°57' E 025°59'16 1.3
2018-Jun-17 21:54N 39°42' E 025°54'122 4.1
2018-Jun-16 16:12N 37°40' E 025°50'312.0
2018-Jun-16 15:57N 37°37' E 025°51'511.7
2018-Jun-16 15:30N 37°32' E 025°53'22211.1
2018-Jun-15 19:26N 34°49' E 028°59'512.0
2018-Jun-15 19:00N 34°46' E 029°04'612.0
2018-Jun-15 18:30N 34°42' E 029°10'611.9
2018-Jun-15 18:00N 34°38' E 029°15'3011.6
2018-Jun-15 15:24N 34°18' E 029°43'611.8
2018-Jun-15 14:51N 34°14' E 029°49'411.6
2018-Jun-15 14:30N 34°11' E 029°53'611.5
2018-Jun-15 14:00N 34°08' E 029°58'1711.2
2018-Jun-15 12:30N 33°57' E 030°14'611.4
2018-Jun-15 12:00N 33°53' E 030°19'1011.3
2018-Jun-15 11:07N 33°47' E 030°28'111.4
2018-Jun-15 11:00N 33°46' E 030°29'2511.8
2018-Jun-15 08:55N 33°30' E 030°52'1011.9
2018-Jun-15 08:03N 33°23' E 031°01'5912.0
2018-Jun-15 03:06N 32°45' E 031°55'411.9
2018-Jun-15 02:48N 32°43' E 031°59'411.9
2018-Jun-15 02:30N 32°41' E 032°02'6612.1
2018-Jun-14 21:02N 31°57' E 033°01'011.4
2018-Jun-14 21:00N 31°57' E 033°01'12 7.1
2018-Jun-14 19:18N 31°49' E 032°50'414.1
2018-Jun-14 19:00N 31°47' E 032°46'714.2
2018-Jun-14 18:30N 31°43' E 032°39'714.4
2018-Jun-14 18:00N 31°39' E 032°32'714.0
2018-Jun-14 17:29N 31°35' E 032°25'611.7
2018-Jun-14 17:01N 31°30' E 032°25'612.4
2018-Jun-14 16:30N 31°23' E 032°24'611.7
2018-Jun-14 16:00N 31°18' E 032°22'510.0
2018-Jun-14 15:30N 31°13' E 032°20'8 7.9
2018-Jun-14 14:30N 31°05' E 032°19'5 9.9
2018-Jun-14 13:57N 30°60' E 032°19'510.3
2018-Jun-14 13:28N 30°55' E 032°19'  

Dump ship's entire track history